Time;durP1;ratioP1;P1;durP2;ratioP2;P2;SDS_P1;SDS_P2;PMS_P1;PMS_P2;Temp;Humidity;BMP_temperature;BMP_pressure;BME280_temperature;BME280_humidity;BME280_pressure;Samples;Min_cycle;Max_cycle;Signal;HPM_P1;HPM_P2
2022/01/20 00:00:20;;;;;;;18.30;11.90;;;;;;;8.99;53.05;99600.77;1685937;83;21666;-54
2022/01/20 00:02:59;;;;;;;20.45;13.35;;;;;;;8.95;53.33;99601.33;1679352;84;21578;-54
2022/01/20 00:05:34;;;;;;;18.27;13.48;;;;;;;9.02;53.07;99598.00;1677934;83;21539;-55
2022/01/20 00:27:16;;;;;;;22.55;13.43;;;;;;;9.26;52.66;99568.22;1681835;83;21554;-55
2022/01/20 00:32:20;;;;;;;20.35;13.05;;;;;;;9.14;53.05;99560.84;1702762;82;21433;-55
2022/01/20 00:37:26;;;;;;;22.02;13.43;;;;;;;9.06;53.02;99557.20;1695791;83;21860;-56
2022/01/20 00:39:53;;;;;;;21.80;13.50;;;;;;;9.16;53.03;99549.83;1681022;84;21572;-56
2022/01/20 00:42:19;;;;;;;22.70;13.73;;;;;;;9.12;52.91;99549.09;1694791;82;21434;-55
2022/01/20 00:44:46;;;;;;;19.32;12.70;;;;;;;9.18;53.18;99538.81;1672815;83;21070;-55
2022/01/20 00:47:13;;;;;;;21.05;12.45;;;;;;;9.20;53.15;99534.36;1693317;81;21650;-55
2022/01/20 00:49:41;;;;;;;19.40;12.78;;;;;;;9.27;53.26;99529.75;1675811;84;21787;-56
2022/01/20 00:52:07;;;;;;;22.90;14.25;;;;;;;9.26;53.18;99519.69;1717096;80;21428;-55
2022/01/20 00:54:35;;;;;;;18.73;13.13;;;;;;;8.94;53.50;99525.72;1722689;80;21452;-55
2022/01/20 00:57:03;;;;;;;20.73;13.60;;;;;;;9.22;53.41;99522.04;1728178;80;21502;-55
2022/01/20 00:59:30;;;;;;;19.20;12.93;;;;;;;9.21;53.51;99509.85;1731242;81;20943;-55
2022/01/20 01:01:59;;;;;;;17.60;12.60;;;;;;;9.33;53.20;99509.35;1728246;81;22120;-56
2022/01/20 01:04:27;;;;;;;18.98;13.25;;;;;;;9.29;53.21;99511.70;1690794;82;21476;-56
2022/01/20 01:09:41;;;;;;;19.48;12.90;;;;;;;9.27;53.21;99506.98;1686220;83;21454;-56
2022/01/20 01:12:11;;;;;;;;;;;;;;;9.51;53.83;99514.77;1723223;81;21491;-56
2022/01/20 01:14:44;;;;;;;19.27;11.78;;;;;;;9.65;54.12;99503.26;1718298;82;20531;-55
2022/01/20 01:24:47;;;;;;;21.52;13.85;;;;;;;9.66;53.54;99491.85;1689796;82;21590;-55
2022/01/20 01:27:14;;;;;;;19.45;12.78;;;;;;;9.48;54.15;99488.20;1712486;81;21771;-55
2022/01/20 01:32:34;;;;;;;20.80;13.60;;;;;;;9.58;53.46;99479.95;1715293;80;21483;-56
2022/01/20 01:34:54;;;;;;;22.60;14.40;;;;;;;9.45;53.82;99470.41;1717314;80;21014;-56
2022/01/20 01:39:52;;;;;;;24.32;13.93;;;;;;;9.43;53.42;99457.34;1676490;81;22126;-56
2022/01/20 01:42:25;;;;;;;19.37;13.98;;;;;;;9.57;54.04;99463.36;1712257;81;21539;-56
2022/01/20 01:44:48;;;;;;;22.65;14.63;;;;;;;9.52;53.65;99464.84;1722385;80;20986;-55
2022/01/20 01:47:15;;;;;;;20.57;13.90;;;;;;;9.54;53.57;99463.01;1731280;81;21577;-56
2022/01/20 01:49:42;;;;;;;20.40;13.22;;;;;;;9.62;53.82;99453.50;1674502;83;21083;-56
2022/01/20 01:52:10;;;;;;;21.85;13.43;;;;;;;9.71;53.88;99451.80;1712733;82;22081;-55
2022/01/20 01:54:37;;;;;;;22.58;13.98;;;;;;;9.69;53.65;99447.08;1679810;83;21460;-55
2022/01/20 01:57:06;;;;;;;20.60;14.18;;;;;;;9.70;53.88;99451.86;1726814;80;21468;-55
2022/01/20 01:59:32;;;;;;;24.23;13.95;;;;;;;9.63;53.46;99444.72;1693035;82;21550;-55
2022/01/20 02:02:01;;;;;;;19.80;13.00;;;;;;;9.69;53.62;99444.45;1722238;81;21541;-56
2022/01/20 02:04:29;;;;;;;19.52;13.20;;;;;;;9.77;54.26;99436.72;1722350;81;21752;-55
2022/01/20 02:18:35;;;;;;;;;;;;;;;9.61;53.89;99421.63;1727409;82;22094;-55
2022/01/20 02:20:41;;;;;;;24.35;14.73;;;;;;;9.51;53.07;99418.97;1711009;80;20537;-55
2022/01/20 02:23:15;;;;;;;20.25;13.78;;;;;;;9.64;53.41;99415.38;1722970;80;21569;-55
2022/01/20 02:25:42;;;;;;;20.30;13.13;;;;;;;9.49;53.47;99412.94;1711769;82;21483;-55
2022/01/20 02:28:10;;;;;;;22.73;14.37;;;;;;;9.23;53.35;99412.27;1726053;80;21427;-55
2022/01/20 02:30:39;;;;;;;23.92;13.75;;;;;;;9.31;53.27;99406.23;1733378;81;21783;-56
2022/01/20 02:33:16;;;;;;;23.22;14.65;;;;;;;9.52;53.37;99402.32;1721834;81;21451;-55
2022/01/20 02:35:53;;;;;;;22.87;14.23;;;;;;;9.42;53.42;99395.73;1711893;80;21554;-55
2022/01/20 02:38:29;;;;;;;23.05;13.15;;;;;;;9.53;53.82;99391.77;1717602;80;21525;-55
2022/01/20 02:46:21;;;;;;;22.90;14.65;;;;;;;9.40;53.43;99382.70;1719476;81;21042;-56
2022/01/20 02:48:48;;;;;;;23.83;15.45;;;;;;;9.28;53.39;99380.11;1724243;80;21515;-55
2022/01/20 02:51:15;;;;;;;24.02;14.87;;;;;;;9.38;53.43;99372.73;1738287;80;21030;-55
2022/01/20 02:53:42;;;;;;;20.43;14.05;;;;;;;9.45;53.20;99372.84;1736718;81;21533;-55
2022/01/20 02:56:08;;;;;;;21.62;15.83;;;;;;;9.35;52.91;99361.05;1741280;80;21805;-55
2022/01/20 02:58:35;;;;;;;31.85;19.75;;;;;;;9.31;53.39;99362.10;1723972;80;21006;-56
2022/01/20 03:01:02;;;;;;;27.20;17.40;;;;;;;9.21;53.47;99364.70;1742341;80;21463;-56
2022/01/20 03:03:30;;;;;;;26.23;18.50;;;;;;;9.07;53.50;99354.32;1730936;80;21570;-56
2022/01/20 03:05:57;;;;;;;25.30;16.13;;;;;;;9.19;53.62;99355.57;1725657;81;21691;-55
2022/01/20 03:08:23;;;;;;;22.67;16.00;;;;;;;9.00;53.67;99347.61;1693452;82;22150;-55
2022/01/20 03:10:51;;;;;;;27.55;17.23;;;;;;;9.34;53.72;99349.70;1702616;82;21882;-55
2022/01/20 03:13:19;;;;;;;27.80;16.40;;;;;;;9.13;53.38;99357.14;1691422;82;21414;-56
2022/01/20 03:15:46;;;;;;;20.57;15.53;;;;;;;9.26;53.11;99347.84;1697337;82;21646;-55
2022/01/20 03:18:13;;;;;;;26.48;17.82;;;;;;;9.35;53.05;99346.62;1691213;82;21497;-56
2022/01/20 03:20:39;;;;;;;25.95;17.85;;;;;;;9.39;53.22;99341.62;1694848;82;22019;-56
2022/01/20 03:23:06;;;;;;;24.67;16.40;;;;;;;9.42;53.74;99334.95;1697759;81;21437;-55
2022/01/20 03:25:33;;;;;;;23.13;16.13;;;;;;;9.15;53.55;99327.77;1678811;84;21545;-55
2022/01/20 03:28:00;;;;;;;22.70;14.83;;;;;;;9.13;53.28;99323.89;1675107;83;21566;-56
2022/01/20 03:30:28;;;;;;;22.23;14.73;;;;;;;9.24;53.37;99316.89;1684955;83;21480;-55
2022/01/20 03:32:55;;;;;;;25.72;16.12;;;;;;;8.95;53.79;99318.97;1670590;83;21602;-54
2022/01/20 03:35:22;;;;;;;26.45;15.13;;;;;;;8.87;53.34;99312.33;1700246;82;21556;-54
2022/01/20 03:37:50;;;;;;;22.22;15.55;;;;;;;8.70;53.41;99309.95;1626935;84;21011;-55
2022/01/20 03:40:20;;;;;;;24.57;14.60;;;;;;;8.93;53.43;99308.17;1680158;84;21499;-55
2022/01/20 03:42:46;;;;;;;26.48;16.55;;;;;;;8.98;53.20;99309.27;1711073;81;21588;-55
2022/01/20 03:45:13;;;;;;;24.67;15.23;;;;;;;8.66;53.63;99303.11;1679881;84;21816;-54
2022/01/20 03:47:40;;;;;;;24.87;15.08;;;;;;;8.56;53.58;99307.03;1688306;82;21422;-55
2022/01/20 03:50:59;;;;;;;21.75;13.98;;;;;;;8.41;53.83;99300.59;1695327;82;21439;-55
2022/01/20 03:52:38;;;;;;;21.30;14.13;;;;;;;8.67;53.26;99300.05;1732505;80;21472;-55
2022/01/20 03:55:06;;;;;;;24.57;14.33;;;;;;;8.10;53.75;99298.30;1726767;80;21612;-55
2022/01/20 03:57:34;;;;;;;22.90;14.03;;;;;;;8.23;53.69;99294.75;1731001;80;21833;-55
2022/01/20 04:00:10;;;;;;;23.85;15.23;;;;;;;8.28;53.85;99293.66;1726753;80;20950;-56
2022/01/20 04:02:47;;;;;;;20.75;14.98;;;;;;;8.48;53.36;99293.39;1722886;80;21495;-55
2022/01/20 04:05:16;;;;;;;20.00;13.85;;;;;;;8.41;53.57;99282.25;1720601;80;21483;-55
2022/01/20 04:07:45;;;;;;;22.77;14.53;;;;;;;8.51;53.93;99281.02;1741052;80;20979;-56
2022/01/20 04:10:12;;;;;;;23.18;14.47;;;;;;;8.43;53.68;99279.14;1730074;80;21840;-55
2022/01/20 04:12:39;;;;;;;19.75;14.38;;;;;;;8.56;53.58;99275.58;1730073;80;21448;-56
2022/01/20 04:15:09;;;;;;;19.80;13.50;;;;;;;8.54;53.55;99271.70;1721115;80;21545;-55
2022/01/20 04:17:40;;;;;;;21.33;12.85;;;;;;;8.47;53.42;99265.47;1725029;80;21535;-55
2022/01/20 04:20:09;;;;;;;20.00;12.90;;;;;;;8.63;53.47;99269.65;1740970;80;21730;-55
2022/01/20 04:22:35;;;;;;;20.48;13.83;;;;;;;8.68;53.22;99262.42;1732511;80;21813;-55
2022/01/20 04:25:04;;;;;;;17.42;12.53;;;;;;;8.68;53.52;99254.56;1739646;80;21501;-56
2022/01/20 04:27:30;;;;;;;18.50;12.35;;;;;;;8.60;52.76;99250.95;1718872;82;21446;-55
2022/01/20 04:29:57;;;;;;;24.15;14.15;;;;;;;8.50;53.85;99245.70;1729375;80;21455;-55
2022/01/20 04:32:24;;;;;;;24.07;15.85;;;;;;;8.20;53.60;99248.59;1691388;83;21005;-56
2022/01/20 04:34:52;;;;;;;;;;;;;;;8.55;53.58;99243.29;1725054;80;21793;-55
2022/01/20 04:37:18;;;;;;;22.15;14.03;;;;;;;8.52;53.17;99243.41;1725989;80;20358;-56
2022/01/20 04:39:48;;;;;;;26.62;15.90;;;;;;;8.53;53.18;99239.88;1695502;82;21537;-55
2022/01/20 04:42:13;;;;;;;21.07;13.70;;;;;;;8.19;53.15;99237.27;1724245;82;21444;-55
2022/01/20 04:44:48;;;;;;;22.50;13.38;;;;;;;8.17;53.00;99232.98;1730541;80;21533;-54
2022/01/20 04:58:09;;;;;;;21.97;14.38;;;;;;;8.06;53.04;99215.55;1746387;81;21578;-55
2022/01/20 05:00:37;;;;;;;24.85;14.30;;;;;;;7.99;53.28;99213.63;1739847;80;21806;-56
2022/01/20 05:03:42;;;;;;;23.38;15.28;;;;;;;8.11;52.77;99212.30;1632625;86;21643;-54
2022/01/20 05:06:14;;;;;;;19.77;13.45;;;;;;;8.07;52.65;99201.08;1628509;86;21403;-55
2022/01/20 05:08:41;;;;;;;17.25;11.45;;;;;;;7.97;52.94;99211.54;1634280;86;22543;-54
2022/01/20 05:11:10;;;;;;;20.68;13.48;;;;;;;8.06;53.42;99201.14;1632674;86;21538;-55
2022/01/20 05:13:40;;;;;;;20.23;13.13;;;;;;;8.12;52.99;99195.68;1630238;86;21830;-54
2022/01/20 05:16:05;;;;;;;19.85;13.15;;;;;;;8.05;53.09;99200.30;1634097;86;21512;-54
2022/01/20 05:18:32;;;;;;;18.80;12.80;;;;;;;7.92;53.14;99197.77;1637129;86;21494;-54
2022/01/20 05:20:58;;;;;;;18.53;11.83;;;;;;;7.85;53.37;99191.90;1648273;86;21470;-53
2022/01/20 05:23:25;;;;;;;18.20;12.07;;;;;;;7.72;53.01;99195.47;1632105;86;21016;-54
2022/01/20 05:25:52;;;;;;;17.00;12.65;;;;;;;7.92;52.97;99196.45;1627196;86;21435;-54
2022/01/20 05:28:19;;;;;;;20.80;12.90;;;;;;;7.99;53.00;99192.23;1627185;86;21476;-53
2022/01/20 05:30:46;;;;;;;19.15;11.95;;;;;;;7.93;52.94;99188.98;1641964;86;21557;-53
2022/01/20 05:33:17;;;;;;;18.95;12.82;;;;;;;7.98;53.00;99184.42;1634774;86;21507;-54
2022/01/20 05:35:44;;;;;;;18.87;12.68;;;;;;;7.62;53.07;99176.25;1632338;86;21620;-53
2022/01/20 05:38:12;;;;;;;15.78;10.03;;;;;;;7.47;52.90;99192.06;1632045;86;21791;-54
2022/01/20 05:40:39;;;;;;;19.12;11.90;;;;;;;7.74;53.03;99187.54;1637869;86;20967;-54
2022/01/20 05:43:06;;;;;;;22.42;12.45;;;;;;;7.41;53.13;99191.38;1639516;86;21495;-53
2022/01/20 05:45:33;;;;;;;25.32;13.08;;;;;;;7.82;53.00;99183.31;1640061;86;21582;-53
2022/01/20 05:48:10;;;;;;;21.27;13.22;;;;;;;7.56;53.02;99198.27;1631727;86;21568;-54
2022/01/20 05:50:47;;;;;;;19.12;13.10;;;;;;;7.78;52.77;99193.92;1634060;86;21576;-54
2022/01/20 05:53:14;;;;;;;23.00;11.65;;;;;;;7.72;52.87;99199.83;1632300;86;21634;-53
2022/01/20 05:55:40;;;;;;;22.52;12.58;;;;;;;7.29;53.26;99202.73;1638730;86;21649;-53
2022/01/20 05:58:07;;;;;;;18.35;11.70;;;;;;;7.67;53.05;99197.41;1610767;87;21581;-54
2022/01/20 06:00:36;;;;;;;16.02;11.22;;;;;;;7.39;52.50;99192.35;1602774;86;21602;-53
2022/01/20 06:05:48;;;;;;;18.35;12.28;;;;;;;7.47;52.66;99181.59;1623176;86;21553;-53
2022/01/20 06:08:15;;;;;;;20.65;12.28;;;;;;;7.20;53.00;99183.02;1623223;86;21715;-53
2022/01/20 06:10:41;;;;;;;21.55;13.55;;;;;;;7.45;52.78;99182.12;1631590;86;21018;-54
2022/01/20 06:13:11;;;;;;;21.93;12.80;;;;;;;7.27;52.67;99177.09;1627218;86;21563;-55
2022/01/20 06:15:38;;;;;;;21.90;13.22;;;;;;;7.40;52.86;99163.53;1621582;86;22424;-55
2022/01/20 06:18:05;;;;;;;18.87;12.98;;;;;;;7.53;52.37;99156.05;1627109;86;21433;-54
2022/01/20 06:20:32;;;;;;;19.80;12.35;;;;;;;7.19;53.07;99156.00;1630959;86;21528;-54
2022/01/20 06:22:59;;;;;;;16.48;11.50;;;;;;;7.52;52.91;99158.28;1621711;86;21483;-53
2022/01/20 06:25:26;;;;;;;18.47;11.90;;;;;;;7.16;52.77;99152.21;1617668;86;21608;-55
2022/01/20 06:27:53;;;;;;;18.07;12.03;;;;;;;7.34;52.58;99154.58;1614113;86;21758;-55
2022/01/20 06:30:19;;;;;;;19.55;12.33;;;;;;;7.47;52.30;99161.98;1624798;86;21560;-54
2022/01/20 06:32:46;;;;;;;21.97;11.50;;;;;;;7.64;52.55;99150.41;1633657;86;21581;-54
2022/01/20 06:35:14;;;;;;;20.10;11.73;;;;;;;7.30;52.41;99151.69;1622593;86;21478;-55
2022/01/20 06:37:41;;;;;;;17.40;12.13;;;;;;;7.37;52.89;99157.56;1620693;86;21520;-54
2022/01/20 06:40:09;;;;;;;18.57;11.43;;;;;;;7.26;52.63;99147.95;1623094;86;21446;-54
2022/01/20 06:42:36;;;;;;;21.42;10.98;;;;;;;7.35;52.43;99137.99;1634910;86;20974;-54
2022/01/20 06:45:05;;;;;;;20.60;12.37;;;;;;;7.14;52.11;99136.16;1624874;86;21521;-56
2022/01/20 06:47:32;;;;;;;19.65;11.93;;;;;;;7.50;52.64;99122.64;1619849;86;21524;-55
2022/01/20 06:50:01;;;;;;;19.23;11.25;;;;;;;7.57;52.04;99111.00;1617018;86;21034;-55
2022/01/20 06:52:28;;;;;;;18.87;11.80;;;;;;;7.52;52.11;99106.42;1611808;86;22593;-55
2022/01/20 06:54:55;;;;;;;16.90;11.05;;;;;;;7.27;50.46;99096.91;1615561;86;21520;-55
2022/01/20 06:57:22;;;;;;;20.15;12.35;;;;;;;7.44;51.02;99104.54;1615559;86;21558;-56
2022/01/20 06:59:49;;;;;;;13.60;9.48;;;;;;;7.80;52.13;99110.95;1617250;86;21702;-56
2022/01/20 07:02:16;;;;;;;16.73;11.23;;;;;;;7.88;51.97;99105.41;1616940;86;21610;-55
2022/01/20 07:04:44;;;;;;;18.35;11.33;;;;;;;7.95;51.97;99108.66;1624676;86;21629;-56
2022/01/20 07:07:11;;;;;;;18.62;11.75;;;;;;;7.83;51.50;99107.36;1624119;86;21584;-55
2022/01/20 07:09:43;;;;;;;18.57;11.20;;;;;;;7.85;51.93;99113.84;1618603;86;21517;-55
2022/01/20 07:12:17;;;;;;;20.25;11.88;;;;;;;7.89;51.17;99112.37;1617834;86;21075;-55
2022/01/20 07:14:44;;;;;;;18.30;11.05;;;;;;;7.67;51.16;99107.59;1623307;86;21548;-54
2022/01/20 07:17:11;;;;;;;19.63;11.13;;;;;;;7.60;51.83;99110.42;1620872;86;21823;-55
2022/01/20 07:19:40;;;;;;;17.42;11.33;;;;;;;8.15;50.75;99102.11;1618187;86;21629;-55
2022/01/20 07:22:07;;;;;;;18.10;11.40;;;;;;;7.74;51.76;99107.72;1609285;86;21581;-55
2022/01/20 07:24:34;;;;;;;18.60;10.60;;;;;;;8.04;51.68;99106.09;1620283;86;21571;-55
2022/01/20 07:27:03;;;;;;;19.73;11.85;;;;;;;7.81;51.31;99107.88;1618233;86;21450;-55
2022/01/20 07:29:31;;;;;;;19.50;12.50;;;;;;;8.01;51.16;99092.69;1624288;86;21781;-55
2022/01/20 07:32:01;;;;;;;24.00;12.13;;;;;;;8.27;51.25;99091.60;1612557;86;21581;-54
2022/01/20 07:34:29;;;;;;;16.05;10.82;;;;;;;8.14;51.11;99096.97;1612008;86;21589;-55
2022/01/20 07:36:55;;;;;;;20.25;11.57;;;;;;;8.24;51.18;99106.59;1614216;86;21594;-54
2022/01/20 07:39:22;;;;;;;19.65;11.88;;;;;;;8.67;50.64;99108.27;1613190;86;21707;-54
2022/01/20 07:41:49;;;;;;;18.65;11.80;;;;;;;8.88;51.15;99114.80;1620029;86;21537;-54
2022/01/20 07:44:34;;;;;;;16.85;11.63;;;;;;;8.71;50.32;99119.47;1615618;86;21531;-56
2022/01/20 07:47:08;;;;;;;17.17;10.38;;;;;;;8.51;50.32;99115.95;1569782;86;21645;-55
2022/01/20 07:49:35;;;;;;;20.20;11.57;;;;;;;8.38;50.24;99110.34;1613717;86;21538;-56
2022/01/20 07:52:02;;;;;;;16.27;10.80;;;;;;;8.82;51.14;99096.25;1622250;86;21065;-55
2022/01/20 07:54:29;;;;;;;24.45;12.75;;;;;;;8.69;50.78;99084.61;1614197;86;21790;-56
2022/01/20 07:56:55;;;;;;;20.82;12.78;;;;;;;8.72;51.00;99080.52;1614443;86;21582;-56
2022/01/20 07:59:24;;;;;;;17.37;11.35;;;;;;;8.85;50.59;99082.15;1614909;86;21584;-55
2022/01/20 08:01:51;;;;;;;23.65;12.40;;;;;;;8.68;50.77;99073.72;1625839;86;21554;-56
2022/01/20 08:04:18;;;;;;;19.95;12.25;;;;;;;8.61;50.37;99065.30;1622644;86;21601;-55
2022/01/20 08:06:44;;;;;;;20.23;12.07;;;;;;;8.80;50.56;99063.14;1629284;86;22187;-55
2022/01/20 08:09:14;;;;;;;18.55;11.63;;;;;;;9.08;50.96;99062.31;1631335;86;21581;-56
2022/01/20 08:11:43;;;;;;;17.45;11.45;;;;;;;9.42;51.20;99065.11;1620795;86;21612;-56
2022/01/20 08:14:29;;;;;;;19.00;11.33;;;;;;;9.42;51.08;99059.42;1628932;86;21079;-57
2022/01/20 08:16:56;;;;;;;17.12;11.45;;;;;;;9.30;50.61;99061.30;1628002;86;21712;-55
2022/01/20 08:19:22;;;;;;;18.57;11.90;;;;;;;9.58;50.41;99071.34;1619762;86;21839;-54
2022/01/20 08:21:49;;;;;;;17.15;11.73;;;;;;;9.37;50.29;99071.06;1606587;88;21573;-55
2022/01/20 08:24:16;;;;;;;16.50;10.78;;;;;;;9.66;49.16;99070.97;1571973;89;21490;-54
2022/01/20 08:26:43;;;;;;;16.00;12.15;;;;;;;9.28;49.17;99071.86;1584911;88;21625;-55
2022/01/20 08:29:10;;;;;;;14.98;11.05;;;;;;;9.71;49.94;99071.14;1584656;88;21630;-55
2022/01/20 08:31:38;;;;;;;17.30;11.35;;;;;;;9.85;50.13;99071.80;1592221;88;21821;-55
2022/01/20 08:34:06;;;;;;;20.88;12.35;;;;;;;9.96;49.95;99072.56;1590345;88;21026;-55
2022/01/20 08:36:35;;;;;;;17.00;11.10;;;;;;;9.93;50.09;99073.58;1584098;87;21112;-55
2022/01/20 08:39:01;;;;;;;15.63;10.82;;;;;;;9.80;47.41;99075.58;1622602;86;21548;-55
2022/01/20 08:41:28;;;;;;;19.60;11.55;;;;;;;10.02;49.83;99064.41;1624913;86;21632;-55
2022/01/20 08:43:55;;;;;;;21.57;11.93;;;;;;;10.08;47.76;99071.13;1616215;86;27127;-56
2022/01/20 08:46:25;;;;;;;18.70;11.97;;;;;;;10.19;49.50;99066.19;1613621;86;21067;-56
2022/01/20 08:48:51;;;;;;;17.67;10.40;;;;;;;10.40;49.61;99062.95;1627747;86;21058;-55
2022/01/20 08:51:31;;;;;;;21.73;12.95;;;;;;;10.47;48.94;99064.79;1622820;86;21668;-54
2022/01/20 08:54:06;;;;;;;15.68;11.60;;;;;;;10.33;47.39;99057.63;1640791;86;21501;-55
2022/01/20 08:56:34;;;;;;;17.37;12.18;;;;;;;10.32;49.42;99049.34;1619488;86;21838;-54
2022/01/20 08:59:05;;;;;;;19.70;11.00;;;;;;;10.46;47.87;99043.40;1622007;86;28798;-55
2022/01/20 09:01:36;;;;;;;16.65;11.28;;;;;;;10.46;49.08;99037.66;1617516;86;21679;-55
2022/01/20 09:04:04;;;;;;;22.85;13.03;;;;;;;10.75;49.08;99031.33;1626517;86;21151;-55
2022/01/20 09:06:31;;;;;;;17.65;11.35;;;;;;;10.84;49.73;99026.90;1614994;86;21647;-55
2022/01/20 09:09:00;;;;;;;18.90;11.83;;;;;;;10.83;48.48;99025.22;1620599;86;21778;-55
2022/01/20 09:11:37;;;;;;;17.92;11.38;;;;;;;11.06;49.21;99021.81;1628791;86;21589;-55
2022/01/20 09:16:45;;;;;;;18.82;11.80;;;;;;;11.49;46.16;99008.42;1626477;86;21566;-55
2022/01/20 09:19:13;;;;;;;18.17;12.15;;;;;;;11.78;45.07;99001.11;1635553;86;21549;-56
2022/01/20 09:21:44;;;;;;;16.17;11.20;;;;;;;12.03;47.12;98997.91;1619919;86;21712;-55
2022/01/20 09:24:10;;;;;;;17.27;11.53;;;;;;;12.41;47.87;98989.04;1625804;86;21085;-56
2022/01/20 09:26:38;;;;;;;20.97;12.13;;;;;;;12.90;48.04;98985.61;1617238;86;21558;-56
2022/01/20 09:29:05;;;;;;;19.55;11.53;;;;;;;12.83;47.42;98983.85;1611833;86;21546;-56
2022/01/20 09:31:37;;;;;;;26.50;12.18;;;;;;;13.14;44.72;98977.46;1613192;86;21650;-57
2022/01/20 09:34:02;;;;;;;16.40;11.53;;;;;;;13.51;48.16;98971.16;1617408;86;21517;-56
2022/01/20 09:36:31;;;;;;;16.32;10.82;;;;;;;13.83;47.69;98964.22;1629101;86;21114;-56
2022/01/20 09:38:58;;;;;;;15.88;11.68;;;;;;;14.09;46.42;98960.27;1623273;86;21542;-57
2022/01/20 09:41:28;;;;;;;19.12;11.15;;;;;;;14.23;45.62;98965.95;1612989;86;21057;-58
2022/01/20 09:43:57;;;;;;;17.42;11.28;;;;;;;14.16;45.21;98950.49;1601559;86;21577;-55
2022/01/20 09:46:32;;;;;;;16.65;11.38;;;;;;;14.49;46.09;98943.00;1618763;86;21498;-57
2022/01/20 09:49:11;;;;;;;17.07;11.90;;;;;;;14.64;45.50;98943.76;1586333;88;21083;-57
2022/01/20 09:51:41;;;;;;;15.90;11.68;;;;;;;14.62;45.50;98920.50;1619106;86;21591;-56
2022/01/20 09:54:19;;;;;;;17.50;11.88;;;;;;;15.27;47.13;98933.91;1622337;86;21667;-56
2022/01/20 09:56:51;;;;;;;18.25;11.83;;;;;;;15.48;46.74;98923.08;1622487;86;21612;-56
2022/01/20 09:59:30;;;;;;;19.20;12.47;;;;;;;14.97;44.34;98929.89;1632000;86;21576;-57
2022/01/20 10:01:58;;;;;;;19.02;12.13;;;;;;;14.11;43.71;98925.33;1616859;86;21030;-57
2022/01/20 10:04:29;;;;;;;19.85;12.58;;;;;;;13.79;47.07;98917.83;1622005;86;21603;-59
2022/01/20 10:07:06;;;;;;;16.17;11.73;;;;;;;13.50;47.35;98918.44;1625004;86;21573;-58
2022/01/20 10:09:45;;;;;;;17.45;11.95;;;;;;;13.20;47.37;98904.50;1625219;86;21623;-58
2022/01/20 10:12:17;;;;;;;18.87;12.07;;;;;;;12.93;46.70;98908.44;1629887;86;21876;-58
2022/01/20 10:14:56;;;;;;;15.05;11.45;;;;;;;12.88;47.17;98901.77;1628770;86;21577;-57
2022/01/20 10:17:41;;;;;;;16.62;11.43;;;;;;;13.08;46.34;98904.45;1632522;86;21105;-58
2022/01/20 10:20:09;;;;;;;18.42;12.07;;;;;;;13.32;45.79;98899.39;1627929;86;21658;-57
2022/01/20 10:22:56;;;;;;;15.78;10.85;;;;;;;13.88;46.08;98902.67;1626896;86;21598;-58
2022/01/20 10:25:31;;;;;;;18.30;12.07;;;;;;;14.13;46.99;98899.17;1515352;89;21589;-58
2022/01/20 10:27:59;;;;;;;17.82;11.53;;;;;;;13.49;45.75;98899.11;1593499;88;21053;-57
2022/01/20 10:30:28;;;;;;;19.40;11.88;;;;;;;13.25;47.02;98887.87;1638259;86;21512;-57
2022/01/20 10:32:59;;;;;;;20.35;11.93;;;;;;;12.85;46.82;98874.63;1632578;86;21540;-57
2022/01/20 10:35:34;;;;;;;17.45;11.18;;;;;;;12.83;48.56;98869.94;1632312;86;21533;-58
2022/01/20 10:38:14;;;;;;;16.00;11.28;;;;;;;12.75;48.45;98865.63;1635081;86;21741;-56
2022/01/20 10:40:54;;;;;;;19.73;12.50;;;;;;;12.70;48.37;98861.12;1615972;86;21545;-57
2022/01/20 10:43:24;;;;;;;22.67;11.78;;;;;;;12.78;50.11;98856.19;1629098;86;21619;-58
2022/01/20 10:46:10;;;;;;;17.25;11.40;;;;;;;12.73;50.34;98851.67;1611702;87;21554;-57
2022/01/20 10:48:38;;;;;;;17.80;11.70;;;;;;;13.00;49.05;98842.45;1624455;86;21112;-57
2022/01/20 10:51:20;;;;;;;14.03;10.93;;;;;;;13.16;47.37;98840.13;1620867;86;21561;-57
2022/01/20 10:54:07;;;;;;;21.00;11.55;;;;;;;13.34;48.01;98833.66;1639013;86;21609;-57
2022/01/20 10:56:54;;;;;;;16.77;11.20;;;;;;;14.19;48.96;98815.47;1629084;86;29091;-57
2022/01/20 10:59:22;;;;;;;17.75;11.83;;;;;;;14.29;47.44;98818.30;1599939;86;21093;-57
2022/01/20 11:02:08;;;;;;;19.32;12.30;;;;;;;15.16;48.93;98803.63;1629182;86;21573;-58
2022/01/20 11:07:16;;;;;;;19.30;12.88;;;;;;;13.98;53.63;98794.53;1828702;77;22529;-58
2022/01/20 11:09:47;;;;;;;17.07;11.78;;;;;;;16.20;44.97;98792.13;1802967;78;21580;-58
2022/01/20 11:12:27;;;;;;;21.05;12.63;;;;;;;16.61;46.59;98779.13;1776344;78;21755;-56
2022/01/20 11:15:00;;;;;;;17.15;12.05;;;;;;;16.80;45.23;98783.31;1794578;78;21541;-57
2022/01/20 11:17:29;;;;;;;15.88;11.53;;;;;;;17.16;44.56;98776.41;1797961;78;21541;-57
2022/01/20 11:20:08;;;;;;;21.73;11.57;;;;;;;17.45;47.08;98787.25;1796708;78;21515;-57
2022/01/20 11:22:36;;;;;;;13.72;11.53;;;;;;;17.84;47.08;98789.67;1793819;78;21560;-57
2022/01/20 11:25:12;;;;;;;16.02;11.45;;;;;;;17.90;47.33;98782.98;1801209;78;21782;-57
2022/01/20 11:27:54;;;;;;;16.77;11.48;;;;;;;18.18;45.39;98775.25;1783266;78;21478;-55
2022/01/20 11:30:42;;;;;;;17.50;11.70;;;;;;;18.34;44.63;98778.72;1795151;78;21466;-56
2022/01/20 11:33:17;;;;;;;14.83;11.10;;;;;;;17.43;41.08;98779.90;1793851;78;21561;-55
2022/01/20 11:35:56;;;;;;;15.60;11.43;;;;;;;17.28;43.61;98783.36;1801030;77;21552;-56
2022/01/20 11:38:25;;;;;;;17.20;11.65;;;;;;;16.80;39.99;98791.74;1784869;78;21742;-56
2022/01/20 11:40:59;;;;;;;14.43;12.30;;;;;;;16.25;44.08;98789.09;1772743;78;21546;-58
2022/01/20 11:43:45;;;;;;;14.63;11.75;;;;;;;15.47;41.67;98784.95;1775780;78;21733;-57
2022/01/20 11:46:21;;;;;;;17.37;12.03;;;;;;;14.96;43.74;98780.83;1745430;78;21612;-56
2022/01/20 11:49:05;;;;;;;15.93;12.25;;;;;;;14.46;44.05;98767.33;1779572;80;21118;-58
2022/01/20 11:51:57;;;;;;;18.48;11.50;;;;;;;14.11;44.21;98775.98;1756338;80;21830;-56
2022/01/20 11:54:40;;;;;;;15.83;11.90;;;;;;;13.84;44.99;98770.38;1756217;80;21496;-56
2022/01/20 11:57:13;;;;;;;18.02;11.70;;;;;;;13.37;45.68;98766.13;1763456;80;21596;-56
2022/01/20 11:59:50;;;;;;;19.73;11.00;;;;;;;13.05;45.22;98766.93;1772654;80;21580;-57
2022/01/20 12:02:36;;;;;;;15.85;10.82;;;;;;;12.93;45.74;98762.48;1763288;80;21580;-56
2022/01/20 12:05:27;;;;;;;16.75;11.65;;;;;;;12.83;46.13;98765.73;1766825;80;21740;-56
2022/01/20 12:08:18;;;;;;;16.05;11.63;;;;;;;12.95;45.91;98753.99;1767107;80;21544;-55
2022/01/20 12:10:47;;;;;;;17.27;11.75;;;;;;;12.99;43.94;98744.44;1767712;80;21678;-54
2022/01/20 12:13:19;;;;;;;14.93;11.30;;;;;;;13.09;47.23;98734.59;1772791;79;21576;-55
2022/01/20 12:15:57;;;;;;;16.42;11.97;;;;;;;12.97;44.99;98736.27;1768050;79;21619;-56
2022/01/20 12:18:24;;;;;;;26.90;19.85;;;;;;;13.52;44.04;98735.16;1756095;80;21693;-57
2022/01/20 12:20:51;;;;;;;20.85;13.15;;;;;;;13.85;45.21;98736.89;1762302;80;21546;-56
2022/01/20 12:23:19;;;;;;;22.37;16.40;;;;;;;14.02;44.85;98732.08;1774580;80;21698;-55
2022/01/20 12:25:46;;;;;;;19.20;12.90;;;;;;;13.46;43.42;98724.19;1771120;79;21655;-55
2022/01/20 12:28:15;;;;;;;257.07;235.90;;;;;;;13.28;44.81;98722.30;1765245;78;21556;-55
2022/01/20 12:30:47;;;;;;;45.17;35.10;;;;;;;13.09;44.14;98720.94;1774031;80;21768;-56
2022/01/20 12:33:15;;;;;;;20.88;13.93;;;;;;;13.14;45.94;98714.85;1775982;79;21067;-56
2022/01/20 12:35:48;;;;;;;32.78;27.40;;;;;;;12.89;46.84;98716.99;1773277;79;21529;-55
2022/01/20 12:38:34;;;;;;;21.80;14.00;;;;;;;12.93;46.09;98707.08;1764484;80;21046;-56
2022/01/20 12:41:18;;;;;;;21.55;15.65;;;;;;;12.92;46.80;98704.06;1769607;80;21016;-56
2022/01/20 12:43:56;;;;;;;43.52;28.00;;;;;;;13.01;45.67;98700.32;1775372;80;21753;-57
2022/01/20 12:46:27;;;;;;;28.17;18.15;;;;;;;13.04;46.18;98698.80;1770295;80;21532;-56
2022/01/20 12:49:11;;;;;;;19.92;13.20;;;;;;;13.02;45.99;98715.70;1775387;78;21616;-56
2022/01/20 12:51:50;;;;;;;15.28;12.07;;;;;;;12.27;45.99;98716.23;1780071;78;21714;-56
2022/01/20 12:54:27;;;;;;;16.07;12.37;;;;;;;12.52;45.60;98710.67;1778362;78;21514;-56